Share

鹿兒島市, 日本

Kanoya (RJFY) 海拔 223 ft | 31.37 °N, 130.84 °E | Change Station

Current weather conditions updated 39 minutes ago

Light Rain Showers
小陣雨
66 °F
感覺像 66 °F
17
風 變化 風 來自 西南偏西
Gusts 29 英里每小時
日出 5:46 AM
日落 6:48 PM
月亮 虧凸月

今天溫度與昨天差不多。 上午有小雨。。

氣壓 29.83 英寸
能見度 3.1 英里
多雲 少數 300 ft
多雲 1000 ft
陰天 2000 ft
少數 2000 ft
露點 64 °F
濕度 94%
降雨量 0.00 英寸
積雪深度 不適用。
紫外線 0 / 16
花粉 不適用。
空氣質素 不適用。
Flu Activity 不適用。
SPECI RJFY 171828Z 25015G25KT 5000 -SHRA BR FEW003 BKN010 OVC020 FEW020CB 19/18 Q1010 RMK 2ST003 6CU010 8CU020 1CB020 A2984 CB 5KM E MOV E

More Conditions Fewer Conditions

氣壓 29.83 英寸
能見度 3.1 英里
多雲 少數 300 ft
多雲 1000 ft
陰天 2000 ft
少數 2000 ft
露點 64 °F
濕度 94%
降雨量 0.00 英寸
積雪深度 不適用。
紫外線 0 / 16
花粉 不適用。
空氣質素 不適用。
Flu Activity 不適用。
SPECI RJFY 171828Z 25015G25KT 5000 -SHRA BR FEW003 BKN010 OVC020 FEW020CB 19/18 Q1010 RMK 2ST003 6CU010 8CU020 1CB020 A2984 CB 5KM E MOV E

More Conditions Fewer Conditions

10-Day Forecast

Almanac

天文

Apr. 18, 2014 昇起 降落
實際時間 05:46 JST 18:48 JST
民用曙暮光 05:21 JST 19:13 JST
航海曙暮光 04:51 JST 19:43 JST
天文學微明 04:21 JST 20:13 JST
月亮 21:49 JST (4/18) 07:44 JST (4/18)
可見光的長度 13h 51m
白晝時間
13h 01m
Tomorrow will be 1m 48s longer.
虧凸月, 93% of the Moon is Illuminated
4月 17
虧凸月
4月 22
第四季
4月 29
5月 6
第一季
5月 14
滿月

昨天之最

國家高溫 國家低溫

Community

  • New Day
    New Day
  • Lake Michigan Sunrise
    Lake Michigan Sunrise
  • sunset from izmir, narlıdere
    sunset from izmir, narlıdere
  • oregon cherry
    oregon cherry
  • Sunset over the Bay
    Sunset over the Bay

WunderPhotos

Upload Photos

1,702,098 照片已上傳!

Nearby

積雪量

Not available.

沿海水溫

地點 溫度
無任何天氣監測站報告

地震活動

城市 距離 時間和日期
附近沒有最近發生的地震活動。
顯示的最小幅度是2.5。

附近的氣象站

無個人氣象站在這一領域。

What do you think?

We're not finished. Please let us know what you like, what you don't like, and what you are still missing.